Time;durP1;ratioP1;P1;durP2;ratioP2;P2;SDS_P1;SDS_P2;PMS_P1;PMS_P2;Temp;Humidity;BMP_temperature;BMP_pressure;BME280_temperature;BME280_humidity;BME280_pressure;Samples;Min_cycle;Max_cycle;Signal;HPM_P1;HPM_P2
2022/12/10 00:01:24;;;;;;;58.30;25.77;;;;;;;;;;5053124;28;20127;-65
2022/12/10 00:03:50;;;;;;;59.60;26.80;;;;;;;;;;5052814;28;20052;-65
2022/12/10 00:06:18;;;;;;;56.78;27.10;;;;;;;;;;5052890;28;20072;-65
2022/12/10 00:08:44;;;;;;;63.15;26.98;;;;;;;;;;5053110;28;20036;-65
2022/12/10 00:11:11;;;;;;;61.10;27.45;;;;;;;;;;5052561;28;20403;-65
2022/12/10 00:13:37;;;;;;;59.17;26.98;;;;;;;;;;5052983;28;20381;-65
2022/12/10 00:16:05;;;;;;;64.22;27.05;;;;;;;;;;5052990;28;20372;-65
2022/12/10 00:18:31;;;;;;;57.28;26.45;;;;;;;;;;5052362;28;20133;-65
2022/12/10 00:20:57;;;;;;;61.70;25.52;;;;;;;;;;5052523;28;20450;-65
2022/12/10 00:23:23;;;;;;;60.75;26.85;;;;;;;;;;5052824;28;20048;-65
2022/12/10 00:25:49;;;;;;;57.40;26.55;;;;;;;;;;5052013;28;20522;-65
2022/12/10 00:28:15;;;;;;;63.25;26.98;;;;;;;;;;5052778;28;20049;-65
2022/12/10 00:30:41;;;;;;;57.38;26.13;;;;;;;;;;5052561;28;20087;-65
2022/12/10 00:33:07;;;;;;;60.58;27.40;;;;;;;;;;5052316;28;20041;-65
2022/12/10 00:35:36;;;;;;;66.10;27.50;;;;;;;;;;5052449;28;20119;-65
2022/12/10 00:38:02;;;;;;;58.22;27.20;;;;;;;;;;5052499;28;20048;-65
2022/12/10 00:40:28;;;;;;;61.90;27.67;;;;;;;;;;5052539;28;20128;-65
2022/12/10 00:42:54;;;;;;;61.20;26.58;;;;;;;;;;5052318;28;20163;-65
2022/12/10 00:45:20;;;;;;;54.90;25.45;;;;;;;;;;5052368;28;20044;-65
2022/12/10 00:47:46;;;;;;;57.80;25.85;;;;;;;;;;5051760;28;20051;-65
2022/12/10 00:50:12;;;;;;;61.00;26.60;;;;;;;;;;5052340;28;20040;-65
2022/12/10 00:52:38;;;;;;;63.60;26.67;;;;;;;;;;5052146;28;20097;-65
2022/12/10 00:55:04;;;;;;;57.53;25.83;;;;;;;;;;5051928;28;20115;-65
2022/12/10 00:57:30;;;;;;;63.55;27.77;;;;;;;;;;5052027;28;20084;-65
2022/12/10 00:59:56;;;;;;;58.20;26.92;;;;;;;;;;5052112;28;20542;-65
2022/12/10 01:02:22;;;;;;;58.88;25.10;;;;;;;;;;5051794;28;20458;-65
2022/12/10 01:04:52;;;;;;;59.80;27.13;;;;;;;;;;5052188;28;20163;-65
2022/12/10 01:07:18;;;;;;;58.15;25.10;;;;;;;;;;5051811;28;20438;-65
2022/12/10 01:09:44;;;;;;;60.78;25.75;;;;;;;;;;5050420;28;20041;-65
2022/12/10 01:12:10;;;;;;;69.25;27.85;;;;;;;;;;5051587;28;20520;-65
2022/12/10 01:14:36;;;;;;;64.25;27.50;;;;;;;;;;5051952;28;20051;-65
2022/12/10 01:17:03;;;;;;;68.35;28.95;;;;;;;;;;5051415;28;20037;-65
2022/12/10 01:19:29;;;;;;;65.07;28.75;;;;;;;;;;5051510;28;20069;-65
2022/12/10 01:21:56;;;;;;;66.95;29.85;;;;;;;;;;5051705;28;20527;-65
2022/12/10 01:24:22;;;;;;;70.65;29.50;;;;;;;;;;5051265;28;20123;-65
2022/12/10 01:26:48;;;;;;;64.43;27.73;;;;;;;;;;5051640;28;20051;-65
2022/12/10 01:29:14;;;;;;;66.70;28.25;;;;;;;;;;5051697;28;20033;-65
2022/12/10 01:31:40;;;;;;;67.65;28.63;;;;;;;;;;5050780;28;20131;-65
2022/12/10 01:34:07;;;;;;;69.75;29.50;;;;;;;;;;5051053;28;20098;-65
2022/12/10 01:36:34;;;;;;;66.80;28.98;;;;;;;;;;5051262;28;20044;-65
2022/12/10 01:39:01;;;;;;;67.93;28.60;;;;;;;;;;5033164;28;20560;-65
2022/12/10 01:41:28;;;;;;;62.70;27.17;;;;;;;;;;5051034;28;20041;-65
2022/12/10 01:44:02;;;;;;;64.65;28.00;;;;;;;;;;5051239;28;20044;-65
2022/12/10 01:46:30;;;;;;;65.32;28.75;;;;;;;;;;5050625;28;20083;-65
2022/12/10 01:48:57;;;;;;;64.88;28.70;;;;;;;;;;5050940;28;20044;-65
2022/12/10 01:51:24;;;;;;;69.88;30.00;;;;;;;;;;5050918;28;20033;-65
2022/12/10 01:53:51;;;;;;;72.97;29.95;;;;;;;;;;5050847;28;20036;-65
2022/12/10 01:56:18;;;;;;;68.82;28.40;;;;;;;;;;5050882;28;20075;-65
2022/12/10 01:58:44;;;;;;;66.63;28.83;;;;;;;;;;5051206;28;20048;-65
2022/12/10 02:01:33;;;;;;;61.80;28.05;;;;;;;;;;5050634;28;20123;-65
2022/12/10 02:03:58;;;;;;;65.00;27.83;;;;;;;;;;5051121;28;20090;-65
2022/12/10 02:06:43;;;;;;;73.13;29.73;;;;;;;;;;5050918;28;20119;-65
2022/12/10 02:09:12;;;;;;;70.20;28.67;;;;;;;;;;5050498;28;20040;-65
2022/12/10 02:11:51;;;;;;;71.05;29.42;;;;;;;;;;5050707;28;20049;-65
2022/12/10 02:14:19;;;;;;;75.32;29.80;;;;;;;;;;5050727;28;20134;-65
2022/12/10 02:16:56;;;;;;;67.40;29.48;;;;;;;;;;5050362;28;20103;-65
2022/12/10 02:19:26;;;;;;;64.20;28.02;;;;;;;;;;5050540;28;20045;-65
2022/12/10 02:21:53;;;;;;;69.38;29.60;;;;;;;;;;5050561;28;20483;-65
2022/12/10 02:24:23;;;;;;;71.05;29.73;;;;;;;;;;5050020;28;20036;-65
2022/12/10 02:26:58;;;;;;;70.55;30.38;;;;;;;;;;5050192;28;20069;-65
2022/12/10 02:29:26;;;;;;;68.75;29.30;;;;;;;;;;5050970;28;20040;-65
2022/12/10 02:32:09;;;;;;;70.75;29.73;;;;;;;;;;5049724;28;20091;-65
2022/12/10 02:34:41;;;;;;;71.18;30.38;;;;;;;;;;5050121;28;20130;-65
2022/12/10 02:37:09;;;;;;;69.70;29.98;;;;;;;;;;5050403;28;20041;-65
2022/12/10 02:39:39;;;;;;;69.15;28.90;;;;;;;;;;5050116;28;20392;-65
2022/12/10 02:42:06;;;;;;;69.28;29.50;;;;;;;;;;5050329;28;20033;-65
2022/12/10 02:44:33;;;;;;;68.50;29.02;;;;;;;;;;5050115;28;20096;-65
2022/12/10 02:47:00;;;;;;;74.30;31.10;;;;;;;;;;5049890;28;20119;-65
2022/12/10 02:49:26;;;;;;;69.13;29.95;;;;;;;;;;5050211;28;20084;-65
2022/12/10 02:51:53;;;;;;;70.95;30.25;;;;;;;;;;5050367;28;20447;-65
2022/12/10 02:54:37;;;;;;;70.55;29.33;;;;;;;;;;5049694;28;20140;-65
2022/12/10 02:57:10;;;;;;;69.70;29.02;;;;;;;;;;5049753;28;20049;-65
2022/12/10 02:59:46;;;;;;;70.10;30.38;;;;;;;;;;5049881;28;20483;-65
2022/12/10 03:02:12;;;;;;;77.57;31.25;;;;;;;;;;5049990;28;20043;-65
2022/12/10 03:04:47;;;;;;;75.70;30.85;;;;;;;;;;5049644;28;20103;-65
2022/12/10 03:07:16;;;;;;;74.72;30.73;;;;;;;;;;5049739;28;20040;-65
2022/12/10 03:09:52;;;;;;;71.60;29.58;;;;;;;;;;5049998;28;20474;-65
2022/12/10 03:12:23;;;;;;;76.88;31.23;;;;;;;;;;5049944;28;20083;-65
2022/12/10 03:14:49;;;;;;;70.97;31.10;;;;;;;;;;5049684;28;20041;-65
2022/12/10 03:17:15;;;;;;;74.00;30.92;;;;;;;;;;5050177;28;20045;-65
2022/12/10 03:19:43;;;;;;;68.55;29.15;;;;;;;;;;5049638;28;20522;-65
2022/12/10 03:22:10;;;;;;;73.20;30.35;;;;;;;;;;5049501;28;20103;-65
2022/12/10 03:24:36;;;;;;;72.43;29.58;;;;;;;;;;5049885;28;20052;-65
2022/12/10 03:27:04;;;;;;;73.30;31.02;;;;;;;;;;5050066;28;20040;-65
2022/12/10 03:29:38;;;;;;;69.68;29.67;;;;;;;;;;5049709;28;20072;-65
2022/12/10 03:32:05;;;;;;;70.78;31.55;;;;;;;;;;5049852;28;20491;-65
2022/12/10 03:34:31;;;;;;;70.07;29.52;;;;;;;;;;5049717;28;20044;-65
2022/12/10 03:36:58;;;;;;;72.40;29.75;;;;;;;;;;5049374;28;20056;-65
2022/12/10 03:39:24;;;;;;;69.13;30.40;;;;;;;;;;5049822;28;20102;-65
2022/12/10 03:41:50;;;;;;;72.13;30.77;;;;;;;;;;5049803;28;20045;-65
2022/12/10 03:44:28;;;;;;;70.55;30.15;;;;;;;;;;5049649;28;20032;-65
2022/12/10 03:46:54;;;;;;;76.28;31.52;;;;;;;;;;5049649;28;20082;-65
2022/12/10 03:49:19;;;;;;;77.32;31.30;;;;;;;;;;5049695;28;20244;-65
2022/12/10 03:51:45;;;;;;;73.43;29.90;;;;;;;;;;5049263;28;20059;-65
2022/12/10 03:54:11;;;;;;;76.97;31.55;;;;;;;;;;5049780;28;20071;-65
2022/12/10 03:56:37;;;;;;;72.00;30.30;;;;;;;;;;5051959;28;20037;-65
2022/12/10 03:59:03;;;;;;;74.40;31.63;;;;;;;;;;5053275;28;20048;-65
2022/12/10 04:01:29;;;;;;;74.03;31.05;;;;;;;;;;5053112;28;20036;-65
2022/12/10 04:03:55;;;;;;;76.68;31.77;;;;;;;;;;5053145;28;20055;-65
2022/12/10 04:06:22;;;;;;;72.03;30.42;;;;;;;;;;5053260;28;20040;-65
2022/12/10 04:08:48;;;;;;;72.68;30.60;;;;;;;;;;5052941;28;20044;-65
2022/12/10 04:11:15;;;;;;;79.82;30.75;;;;;;;;;;5052941;28;20045;-65
2022/12/10 04:16:26;;;;;;;77.45;31.13;;;;;;;;;;5053335;28;20091;-65
2022/12/10 04:18:52;;;;;;;69.45;31.15;;;;;;;;;;5052776;28;20064;-65
2022/12/10 04:26:51;;;;;;;69.93;29.48;;;;;;;;;;5052661;28;20056;-65
2022/12/10 04:27:10;;;;;;;71.45;29.48;;;;;;;;;;5052847;28;20449;-65
2022/12/10 04:29:36;;;;;;;72.80;29.27;;;;;;;;;;5052530;28;20530;-65
2022/12/10 04:32:02;;;;;;;70.63;30.80;;;;;;;;;;5052733;28;20040;-65
2022/12/10 04:34:28;;;;;;;75.07;29.92;;;;;;;;;;5052812;28;20536;-65
2022/12/10 04:36:53;;;;;;;72.60;29.92;;;;;;;;;;5052312;28;20094;-65
2022/12/10 04:39:20;;;;;;;72.07;30.05;;;;;;;;;;5052382;28;20398;-65
2022/12/10 04:41:47;;;;;;;68.88;29.70;;;;;;;;;;5052614;28;20472;-65
2022/12/10 04:44:13;;;;;;;71.47;30.33;;;;;;;;;;5052209;28;20512;-65
2022/12/10 04:46:39;;;;;;;71.05;28.13;;;;;;;;;;5052218;28;20055;-65
2022/12/10 04:49:05;;;;;;;66.93;29.20;;;;;;;;;;5052455;28;20041;-65
2022/12/10 04:51:32;;;;;;;72.82;30.20;;;;;;;;;;5052057;28;20506;-65
2022/12/10 04:53:58;;;;;;;77.32;30.88;;;;;;;;;;5052704;28;20047;-65
2022/12/10 04:56:25;;;;;;;68.57;29.33;;;;;;;;;;5052179;28;20043;-65
2022/12/10 04:58:51;;;;;;;77.00;30.35;;;;;;;;;;5051752;28;20127;-65
2022/12/10 05:01:18;;;;;;;75.15;30.90;;;;;;;;;;5052119;28;20041;-65
2022/12/10 05:03:44;;;;;;;75.78;30.38;;;;;;;;;;5052211;28;20059;-65
2022/12/10 05:06:12;;;;;;;75.40;31.13;;;;;;;;;;5051259;28;20084;-65
2022/12/10 05:08:38;;;;;;;68.60;30.55;;;;;;;;;;5050805;28;20033;-65
2022/12/10 05:11:06;;;;;;;68.35;29.40;;;;;;;;;;5051958;28;20045;-65
2022/12/10 05:13:32;;;;;;;69.70;29.88;;;;;;;;;;5051783;28;20051;-65
2022/12/10 05:15:58;;;;;;;75.70;30.98;;;;;;;;;;5051958;28;20107;-65
2022/12/10 05:18:24;;;;;;;73.53;30.00;;;;;;;;;;5051522;28;20053;-65
2022/12/10 05:20:50;;;;;;;76.68;29.83;;;;;;;;;;5051279;28;20052;-65
2022/12/10 05:23:29;;;;;;;77.68;32.45;;;;;;;;;;5051802;28;20040;-65
2022/12/10 05:26:02;;;;;;;76.15;30.58;;;;;;;;;;5051637;28;20048;-65
2022/12/10 05:28:28;;;;;;;80.68;32.33;;;;;;;;;;5051393;28;20122;-65
2022/12/10 05:30:54;;;;;;;78.10;30.77;;;;;;;;;;5051611;28;20514;-65
2022/12/10 05:33:20;;;;;;;74.28;31.73;;;;;;;;;;5051408;28;20077;-65
2022/12/10 05:36:03;;;;;;;72.82;30.33;;;;;;;;;;5051059;28;20052;-65
2022/12/10 05:38:29;;;;;;;75.05;30.65;;;;;;;;;;5051475;28;20442;-65
2022/12/10 05:40:56;;;;;;;78.07;31.58;;;;;;;;;;5051136;28;20045;-65
2022/12/10 05:43:22;;;;;;;76.10;31.55;;;;;;;;;;5051303;28;20347;-65
2022/12/10 05:45:48;;;;;;;71.72;29.80;;;;;;;;;;5051315;28;20073;-65
2022/12/10 05:48:16;;;;;;;70.97;30.52;;;;;;;;;;5051403;28;20044;-65
2022/12/10 05:50:42;;;;;;;73.30;31.00;;;;;;;;;;5050819;28;20488;-65
2022/12/10 05:53:08;;;;;;;74.60;31.73;;;;;;;;;;5051195;28;20041;-65
2022/12/10 05:55:34;;;;;;;69.30;30.02;;;;;;;;;;5051104;28;20182;-65
2022/12/10 05:58:00;;;;;;;71.05;30.15;;;;;;;;;;5050716;28;20444;-65
2022/12/10 06:00:27;;;;;;;73.78;31.35;;;;;;;;;;5050911;28;20403;-65
2022/12/10 06:02:54;;;;;;;79.18;30.35;;;;;;;;;;5050842;28;20037;-65
2022/12/10 06:05:20;;;;;;;76.75;31.30;;;;;;;;;;5050614;28;20052;-65
2022/12/10 06:07:46;;;;;;;81.88;32.17;;;;;;;;;;5051117;28;20041;-65
2022/12/10 06:10:12;;;;;;;81.70;32.28;;;;;;;;;;5051342;28;20041;-65
2022/12/10 06:12:38;;;;;;;84.57;34.03;;;;;;;;;;5050446;28;20450;-65
2022/12/10 06:15:05;;;;;;;81.57;32.50;;;;;;;;;;5050960;28;20154;-65
2022/12/10 06:17:31;;;;;;;81.22;32.38;;;;;;;;;;5050794;28;20049;-65
2022/12/10 06:19:57;;;;;;;86.30;32.80;;;;;;;;;;5048585;28;20057;-65
2022/12/10 06:22:23;;;;;;;86.25;33.60;;;;;;;;;;5050402;28;20048;-65
2022/12/10 06:24:49;;;;;;;83.95;32.13;;;;;;;;;;5050731;28;20041;-65
2022/12/10 06:27:15;;;;;;;85.50;34.05;;;;;;;;;;5050601;28;20037;-65
2022/12/10 06:29:41;;;;;;;87.88;33.30;;;;;;;;;;5050716;28;20227;-65
2022/12/10 06:32:07;;;;;;;85.03;33.63;;;;;;;;;;5050334;28;20106;-65
2022/12/10 06:34:33;;;;;;;86.35;33.17;;;;;;;;;;5049874;28;20037;-65
2022/12/10 06:36:59;;;;;;;90.95;35.30;;;;;;;;;;5050352;28;20037;-65
2022/12/10 06:39:25;;;;;;;83.70;34.25;;;;;;;;;;5050577;28;20037;-65
2022/12/10 06:41:51;;;;;;;86.00;33.67;;;;;;;;;;5050081;28;20032;-65
2022/12/10 06:44:17;;;;;;;85.72;33.60;;;;;;;;;;5050104;28;20549;-65
2022/12/10 06:46:43;;;;;;;91.32;35.25;;;;;;;;;;5050222;28;20040;-65
2022/12/10 06:49:09;;;;;;;90.00;33.97;;;;;;;;;;5050116;28;20045;-65
2022/12/10 06:51:35;;;;;;;90.93;34.83;;;;;;;;;;5049771;28;20037;-65
2022/12/10 06:54:01;;;;;;;91.85;33.53;;;;;;;;;;5050333;28;20088;-65
2022/12/10 06:56:27;;;;;;;81.10;32.85;;;;;;;;;;5049946;28;20052;-65
2022/12/10 06:58:53;;;;;;;86.22;33.47;;;;;;;;;;5049825;28;20036;-65
2022/12/10 07:01:20;;;;;;;85.10;32.63;;;;;;;;;;5049909;28;20037;-65
2022/12/10 07:03:50;;;;;;;84.80;33.30;;;;;;;;;;5050141;28;20056;-65
2022/12/10 07:06:16;;;;;;;82.35;32.90;;;;;;;;;;5049611;28;20041;-65
2022/12/10 07:08:42;;;;;;;93.38;33.10;;;;;;;;;;5050044;28;20041;-65
2022/12/10 07:11:09;;;;;;;85.43;34.47;;;;;;;;;;5050067;28;20033;-65
2022/12/10 07:13:35;;;;;;;79.80;32.65;;;;;;;;;;5049712;28;20438;-65
2022/12/10 07:16:01;;;;;;;75.93;31.38;;;;;;;;;;5049904;28;20041;-65
2022/12/10 07:18:27;;;;;;;82.57;32.95;;;;;;;;;;5049578;28;20048;-65
2022/12/10 07:20:53;;;;;;;86.45;33.55;;;;;;;;;;5048748;28;20450;-65
2022/12/10 07:23:19;;;;;;;82.03;33.30;;;;;;;;;;5049215;28;20041;-65
2022/12/10 07:25:46;;;;;;;87.95;34.65;;;;;;;;;;5049307;28;20100;-65
2022/12/10 07:28:11;;;;;;;86.07;33.38;;;;;;;;;;5048668;28;20060;-65
2022/12/10 07:30:37;;;;;;;89.78;33.72;;;;;;;;;;5049511;28;20120;-65
2022/12/10 07:33:03;;;;;;;85.75;33.88;;;;;;;;;;5052435;28;20044;-65
2022/12/10 07:35:30;;;;;;;85.68;34.55;;;;;;;;;;5052107;28;20037;-65
2022/12/10 07:37:55;;;;;;;80.45;32.67;;;;;;;;;;5052330;28;20407;-65
2022/12/10 07:40:21;;;;;;;84.50;33.92;;;;;;;;;;5052624;28;20102;-65
2022/12/10 07:42:47;;;;;;;88.60;33.70;;;;;;;;;;5051945;28;20388;-65
2022/12/10 07:45:13;;;;;;;82.70;33.63;;;;;;;;;;5052206;28;20115;-65
2022/12/10 07:47:39;;;;;;;85.85;33.33;;;;;;;;;;5051991;28;20048;-65
2022/12/10 07:50:06;;;;;;;89.80;34.97;;;;;;;;;;5051868;28;20033;-65
2022/12/10 07:52:32;;;;;;;91.88;36.28;;;;;;;;;;5052199;28;20131;-65
2022/12/10 07:54:58;;;;;;;87.43;32.88;;;;;;;;;;5052256;28;20041;-65
2022/12/10 07:57:24;;;;;;;85.60;33.88;;;;;;;;;;5051595;28;20044;-65
2022/12/10 07:59:50;;;;;;;83.15;33.70;;;;;;;;;;5052013;28;20037;-65
2022/12/10 08:02:16;;;;;;;88.90;35.55;;;;;;;;;;5051596;28;20037;-65
2022/12/10 08:04:42;;;;;;;83.22;33.92;;;;;;;;;;5051608;28;20033;-65
2022/12/10 08:07:08;;;;;;;87.13;33.80;;;;;;;;;;5051506;28;20044;-65
2022/12/10 08:09:34;;;;;;;85.70;33.63;;;;;;;;;;5052101;28;20391;-65
2022/12/10 08:12:00;;;;;;;80.25;33.45;;;;;;;;;;5051439;28;20072;-65
2022/12/10 08:14:26;;;;;;;82.57;33.13;;;;;;;;;;5051823;28;20174;-65
2022/12/10 08:16:52;;;;;;;84.43;33.90;;;;;;;;;;5051706;28;20108;-65
2022/12/10 08:19:18;;;;;;;91.70;34.08;;;;;;;;;;5016040;28;1034608;-65
2022/12/10 08:21:44;;;;;;;87.53;34.35;;;;;;;;;;5052840;28;20072;-65
2022/12/10 08:24:10;;;;;;;89.20;33.78;;;;;;;;;;5052964;28;20056;-65
2022/12/10 08:26:36;;;;;;;92.95;35.35;;;;;;;;;;5052414;28;20118;-65
2022/12/10 08:29:02;;;;;;;80.95;32.83;;;;;;;;;;5052727;28;20043;-65
2022/12/10 08:31:28;;;;;;;83.85;35.67;;;;;;;;;;5052694;28;20411;-65
2022/12/10 08:33:55;;;;;;;77.50;32.72;;;;;;;;;;5052334;28;20043;-65
2022/12/10 08:36:21;;;;;;;85.43;32.55;;;;;;;;;;5052503;28;20048;-65
2022/12/10 08:38:47;;;;;;;79.85;33.75;;;;;;;;;;5052651;28;20045;-65
2022/12/10 08:41:17;;;;;;;79.60;33.38;;;;;;;;;;5051856;28;20514;-65
2022/12/10 08:43:44;;;;;;;83.05;32.97;;;;;;;;;;5052574;28;20044;-65
2022/12/10 08:46:10;;;;;;;93.68;33.75;;;;;;;;;;5052393;28;20033;-65
2022/12/10 08:48:36;;;;;;;87.55;34.72;;;;;;;;;;5051943;28;20047;-65
2022/12/10 08:51:02;;;;;;;86.03;33.90;;;;;;;;;;5052323;28;20468;-65
2022/12/10 08:53:28;;;;;;;90.03;33.38;;;;;;;;;;5052310;28;20037;-65
2022/12/10 08:55:54;;;;;;;91.78;35.53;;;;;;;;;;5052022;28;20067;-65
2022/12/10 08:58:20;;;;;;;85.47;35.28;;;;;;;;;;5052158;28;20052;-65
2022/12/10 09:00:47;;;;;;;86.85;34.38;;;;;;;;;;5051980;28;20037;-65
2022/12/10 09:03:13;;;;;;;89.95;35.30;;;;;;;;;;5051713;28;20112;-65
2022/12/10 09:05:39;;;;;;;96.75;37.72;;;;;;;;;;5051945;28;20117;-65
2022/12/10 09:08:05;;;;;;;91.30;36.92;;;;;;;;;;5052153;28;20067;-65
2022/12/10 09:10:31;;;;;;;92.28;36.10;;;;;;;;;;5051801;28;20340;-65
2022/12/10 09:12:57;;;;;;;88.93;35.33;;;;;;;;;;5051861;28;20047;-65
2022/12/10 09:15:23;;;;;;;80.72;31.85;;;;;;;;;;5051931;28;20037;-65
2022/12/10 09:17:49;;;;;;;76.25;32.70;;;;;;;;;;5051505;28;20449;-65
2022/12/10 09:20:15;;;;;;;79.15;32.63;;;;;;;;;;5051583;28;20115;-65
2022/12/10 09:22:41;;;;;;;79.28;31.80;;;;;;;;;;5051821;28;20044;-65
2022/12/10 09:25:09;;;;;;;79.68;32.13;;;;;;;;;;5051265;28;20029;-65
2022/12/10 09:27:36;;;;;;;74.53;30.58;;;;;;;;;;5051809;28;20095;-65
2022/12/10 09:30:02;;;;;;;79.78;32.28;;;;;;;;;;5051860;28;20037;-65
2022/12/10 09:32:28;;;;;;;76.05;31.30;;;;;;;;;;5051133;28;20049;-65
2022/12/10 09:34:54;;;;;;;84.47;32.17;;;;;;;;;;5051611;28;20045;-65
2022/12/10 09:37:20;;;;;;;82.57;33.35;;;;;;;;;;5051364;28;20049;-65
2022/12/10 09:39:46;;;;;;;82.40;33.83;;;;;;;;;;5051184;28;20480;-65
2022/12/10 09:42:30;;;;;;;79.43;32.53;;;;;;;;;;5051495;28;20041;-65
2022/12/10 09:45:09;;;;;;;80.82;32.38;;;;;;;;;;5051361;28;20955;-65
2022/12/10 09:47:45;;;;;;;80.45;32.70;;;;;;;;;;5051066;28;20516;-65
2022/12/10 09:50:20;;;;;;;86.68;33.83;;;;;;;;;;5051284;28;20047;-65
2022/12/10 09:52:48;;;;;;;85.22;34.13;;;;;;;;;;5050552;28;20045;-65
2022/12/10 09:55:16;;;;;;;86.22;35.10;;;;;;;;;;5050555;28;20480;-65
2022/12/10 09:57:44;;;;;;;88.65;32.50;;;;;;;;;;5051006;28;20096;-65
2022/12/10 10:00:18;;;;;;;89.03;34.20;;;;;;;;;;5051102;28;20377;-65
2022/12/10 10:02:44;;;;;;;80.00;32.60;;;;;;;;;;5050663;28;20041;-65
2022/12/10 10:05:14;;;;;;;80.75;33.28;;;;;;;;;;5050890;28;20041;-65
2022/12/10 10:07:44;;;;;;;85.28;32.10;;;;;;;;;;5050716;28;20052;-65
2022/12/10 10:10:24;;;;;;;84.72;32.35;;;;;;;;;;5050505;28;20044;-65
2022/12/10 10:13:01;;;;;;;79.07;31.98;;;;;;;;;;5050692;28;20106;-65
2022/12/10 10:15:32;;;;;;;85.75;32.78;;;;;;;;;;5050556;28;20045;-65
2022/12/10 10:18:28;;;;;;;84.65;31.27;;;;;;;;;;5050191;28;20128;-65
2022/12/10 10:20:55;;;;;;;89.00;34.65;;;;;;;;;;5045475;28;20064;-65
2022/12/10 10:23:20;;;;;;;83.68;32.80;;;;;;;;;;5050674;28;20142;-65
2022/12/10 10:25:46;;;;;;;86.13;32.17;;;;;;;;;;5049872;28;20104;-65
2022/12/10 10:28:14;;;;;;;92.43;34.67;;;;;;;;;;5050606;28;20029;-65
2022/12/10 10:30:44;;;;;;;86.25;33.47;;;;;;;;;;5050242;28;20033;-65
2022/12/10 10:33:10;;;;;;;87.95;35.05;;;;;;;;;;5048961;28;20116;-65
2022/12/10 10:35:43;;;;;;;96.10;36.40;;;;;;;;;;5050549;28;20051;-65
2022/12/10 10:38:23;;;;;;;95.63;34.75;;;;;;;;;;5050215;28;20045;-65
2022/12/10 10:40:51;;;;;;;85.22;31.70;;;;;;;;;;5049834;28;20049;-65
2022/12/10 10:43:23;;;;;;;84.93;32.05;;;;;;;;;;5050402;28;20060;-65
2022/12/10 10:45:51;;;;;;;81.35;32.75;;;;;;;;;;5050249;28;20041;-65
2022/12/10 10:48:19;;;;;;;84.55;32.63;;;;;;;;;;5050003;28;20476;-65
2022/12/10 10:50:47;;;;;;;77.45;31.00;;;;;;;;;;5050239;28;20040;-65
2022/12/10 10:53:28;;;;;;;83.32;33.17;;;;;;;;;;5050220;28;20037;-65
2022/12/10 10:55:55;;;;;;;80.40;31.25;;;;;;;;;;5048373;28;20194;-65
2022/12/10 10:58:22;;;;;;;79.10;31.23;;;;;;;;;;5048861;28;20136;-65
2022/12/10 11:01:01;;;;;;;85.78;30.27;;;;;;;;;;5050025;28;20039;-65
2022/12/10 11:03:29;;;;;;;75.43;30.40;;;;;;;;;;5050032;28;20041;-65
2022/12/10 11:05:57;;;;;;;83.70;30.15;;;;;;;;;;5048998;28;20045;-65
2022/12/10 11:08:24;;;;;;;78.10;30.27;;;;;;;;;;5049763;28;20037;-65
2022/12/10 11:10:52;;;;;;;80.28;31.67;;;;;;;;;;5049930;28;20052;-65
2022/12/10 11:13:25;;;;;;;85.80;32.50;;;;;;;;;;5050021;28;20091;-65
2022/12/10 11:16:02;;;;;;;81.30;31.77;;;;;;;;;;5048263;28;20142;-65
2022/12/10 11:18:33;;;;;;;81.95;30.95;;;;;;;;;;5049948;28;20068;-65
2022/12/10 11:21:01;;;;;;;73.75;27.83;;;;;;;;;;5049850;28;20487;-65
2022/12/10 11:23:28;;;;;;;75.10;29.58;;;;;;;;;;5049768;28;20053;-65
2022/12/10 11:26:02;;;;;;;78.22;28.80;;;;;;;;;;5049168;28;20069;-65
2022/12/10 11:28:57;;;;;;;77.78;31.77;;;;;;;;;;5049304;28;20479;-65
2022/12/10 11:31:31;;;;;;;80.20;29.88;;;;;;;;;;5049126;28;20033;-66
2022/12/10 11:34:16;;;;;;;77.53;29.92;;;;;;;;;;5049241;28;20476;-66
2022/12/10 11:36:51;;;;;;;74.85;28.92;;;;;;;;;;5048536;28;20072;-65
2022/12/10 11:39:29;;;;;;;74.32;30.02;;;;;;;;;;5049254;28;20103;-65
2022/12/10 11:42:05;;;;;;;80.32;29.92;;;;;;;;;;5047335;28;20045;-66
2022/12/10 11:44:40;;;;;;;80.78;31.15;;;;;;;;;;5049697;28;20041;-67
2022/12/10 11:47:25;;;;;;;71.43;28.50;;;;;;;;;;5049153;28;20076;-64
2022/12/10 11:50:10;;;;;;;66.97;27.45;;;;;;;;;;5051068;28;20056;-63
2022/12/10 11:52:41;;;;;;;69.60;27.08;;;;;;;;;;5040191;28;20053;-65
2022/12/10 11:55:28;;;;;;;70.90;29.23;;;;;;;;;;5047976;28;20124;-65
2022/12/10 11:57:56;;;;;;;75.55;28.90;;;;;;;;;;5027780;28;20400;-65
2022/12/10 12:00:24;;;;;;;76.72;28.75;;;;;;;;;;5048811;28;20045;-65
2022/12/10 12:02:53;;;;;;;74.28;29.92;;;;;;;;;;5049315;28;20118;-65
2022/12/10 12:05:19;;;;;;;71.30;29.20;;;;;;;;;;5048902;28;20049;-65
2022/12/10 12:08:00;;;;;;;72.45;28.13;;;;;;;;;;5048470;28;20300;-66
2022/12/10 12:10:29;;;;;;;74.05;29.20;;;;;;;;;;5049292;28;20052;-65
2022/12/10 12:12:55;;;;;;;80.60;30.55;;;;;;;;;;5039733;28;20276;-65
2022/12/10 12:15:24;;;;;;;73.40;28.38;;;;;;;;;;5047840;28;20041;-66
2022/12/10 12:18:05;;;;;;;72.15;27.73;;;;;;;;;;5050432;28;20049;-66
2022/12/10 12:20:43;;;;;;;78.45;29.08;;;;;;;;;;5051766;28;20115;-65
2022/12/10 12:23:15;;;;;;;83.40;29.50;;;;;;;;;;5051058;28;20045;-65
2022/12/10 12:25:49;;;;;;;82.30;29.55;;;;;;;;;;5051464;28;20044;-66
2022/12/10 12:28:20;;;;;;;76.68;28.05;;;;;;;;;;5051055;28;20399;-66
2022/12/10 12:30:47;;;;;;;87.82;29.83;;;;;;;;;;5050829;28;20045;-66
2022/12/10 12:33:18;;;;;;;87.30;31.05;;;;;;;;;;5051645;28;20479;-66
2022/12/10 12:35:56;;;;;;;89.88;31.67;;;;;;;;;;5051804;28;20139;-66
2022/12/10 12:38:33;;;;;;;89.43;31.48;;;;;;;;;;5050872;28;20175;-66
2022/12/10 12:41:18;;;;;;;105.00;32.92;;;;;;;;;;5051126;28;20037;-66
2022/12/10 12:43:53;;;;;;;98.80;32.03;;;;;;;;;;5051488;28;20061;-66
2022/12/10 12:46:21;;;;;;;99.68;34.30;;;;;;;;;;5050692;28;20040;-66
2022/12/10 12:48:54;;;;;;;98.20;36.08;;;;;;;;;;5051668;28;20134;-65
2022/12/10 12:51:24;;;;;;;108.07;34.42;;;;;;;;;;5051194;28;20051;-66
2022/12/10 12:53:50;;;;;;;99.22;34.60;;;;;;;;;;5051051;28;20216;-65
2022/12/10 12:56:19;;;;;;;110.43;37.65;;;;;;;;;;5051265;28;20045;-66
2022/12/10 12:58:54;;;;;;;122.78;38.90;;;;;;;;;;5051819;28;20052;-66
2022/12/10 13:01:30;;;;;;;118.45;37.13;;;;;;;;;;5041886;28;20091;-66
2022/12/10 13:03:57;;;;;;;117.90;38.55;;;;;;;;;;5050759;28;20403;-66
2022/12/10 13:06:23;;;;;;;110.93;37.00;;;;;;;;;;5049424;28;20399;-66
2022/12/10 13:08:50;;;;;;;116.78;38.20;;;;;;;;;;5050745;28;20041;-65
2022/12/10 13:11:18;;;;;;;116.38;39.42;;;;;;;;;;5050949;28;20423;-65
2022/12/10 13:14:03;;;;;;;118.57;38.22;;;;;;;;;;5050735;28;20044;-66
2022/12/10 13:16:38;;;;;;;109.05;36.35;;;;;;;;;;5050503;28;20044;-66
2022/12/10 13:19:34;;;;;;;123.60;40.25;;;;;;;;;;5049190;28;20088;-62
2022/12/10 13:22:02;;;;;;;123.15;40.90;;;;;;;;;;5049282;28;20044;-60
2022/12/10 13:24:39;;;;;;;128.20;40.05;;;;;;;;;;5050540;28;20101;-60
2022/12/10 13:27:15;;;;;;;118.68;38.03;;;;;;;;;;5050711;28;20442;-60
2022/12/10 13:30:19;;;;;;;123.05;39.15;;;;;;;;;;5049251;28;20360;-60
2022/12/10 13:32:47;;;;;;;117.68;37.40;;;;;;;;;;5006610;28;20104;-61
2022/12/10 13:35:15;;;;;;;119.68;38.42;;;;;;;;;;4995393;28;20064;-54
2022/12/10 13:37:52;;;;;;;119.13;39.47;;;;;;;;;;5018351;28;20053;-61
2022/12/10 13:44:34;;;;;;;116.28;38.47;;;;;;;;;;5030351;28;20045;-62
2022/12/10 13:46:29;;;;;;;122.15;39.88;;;;;;;;;;5029441;28;20088;-62
2022/12/10 13:48:56;;;;;;;130.27;41.58;;;;;;;;;;5030357;28;20393;-62
2022/12/10 13:51:37;;;;;;;123.03;39.03;;;;;;;;;;5034186;28;20033;-63
2022/12/10 13:54:11;;;;;;;132.35;41.42;;;;;;;;;;5049945;28;20044;-62
2022/12/10 13:56:46;;;;;;;123.78;39.30;;;;;;;;;;5049880;28;20435;-62
2022/12/10 13:59:16;;;;;;;129.18;40.67;;;;;;;;;;5049768;28;20037;-62
2022/12/10 14:01:51;;;;;;;130.02;41.53;;;;;;;;;;5049207;28;20049;-61
2022/12/10 14:04:56;;;;;;;131.18;41.55;;;;;;;;;;5050011;28;20369;-62
2022/12/10 14:07:22;;;;;;;123.00;37.47;;;;;;;;;;5006629;28;20084;-62
2022/12/10 14:09:55;;;;;;;126.57;39.20;;;;;;;;;;5007355;28;20044;-60
2022/12/10 14:14:59;;;;;;;124.28;40.50;;;;;;;;;;5027074;28;20441;-61
2022/12/10 14:17:31;;;;;;;119.68;37.97;;;;;;;;;;5019689;28;20475;-61
2022/12/10 14:19:57;;;;;;;121.03;38.95;;;;;;;;;;5009991;28;20065;-62
2022/12/10 14:22:25;;;;;;;119.13;38.10;;;;;;;;;;5009543;28;20037;-61
2022/12/10 14:24:52;;;;;;;133.48;40.17;;;;;;;;;;5013725;28;20042;-63
2022/12/10 14:27:20;;;;;;;122.38;39.65;;;;;;;;;;5029577;28;20045;-61
2022/12/10 14:29:55;;;;;;;129.32;40.55;;;;;;;;;;5017487;28;20447;-63
2022/12/10 14:32:25;;;;;;;120.75;38.28;;;;;;;;;;5013757;28;20052;-61
2022/12/10 14:34:56;;;;;;;129.20;40.17;;;;;;;;;;5023779;28;20076;-60
2022/12/10 14:37:25;;;;;;;125.47;37.78;;;;;;;;;;5009396;28;20571;-61
2022/12/10 14:39:51;;;;;;;124.15;39.85;;;;;;;;;;5009614;28;20057;-61